Terminal Aerodrome Forecast
Issued by NWS

Home | Current Version | Previous Version | Text Only | Print | Product List | Glossary Off
Versions: 1 2 3 4 5 6 7 8 9 10 11 12 13 14 15 16 17 18

610
FTUS43 KBIS 191720
TAFDIK
TAF
KDIK 191720Z 1918/2018 23013KT P6SM SKC
     FM192000 20009KT P6SM SKC
     FM200000 17008KT P6SM FEW150=

USA.gov is the U.S. government's official web portal to all federal, state and local government web resources and services.